GAP2867 RPLL-RPVM
Flight info
| Callsign | GAP2867 |
|---|---|
| Flight time | 0h 59m |
| Altitude | 37000 |
| Route | HARBO1 HARBO DCT IPATA W25 BATAY BATAY3P |
| Aircraft | A20N/M-SDE2E3FGHIRWXY/LB1 |
Departure
| Time | 2026-05-06 05:16 |
|---|---|
| Airport | Ninoy Aquino International Airport (RPLL) |
Arrival
| Time | 2026-05-06 06:16 |
|---|---|
| Airport | Mactan Cebu International Airport (RPVM) |
| Time | Latitude | Longitude | Altitude | Speed | Heading |
|---|---|---|---|---|---|
| 2026-05-06 05:08 | 14.51023 | 121.01404 | 99 ft | 0 kts | 225° |
| 2026-05-06 05:10 | 14.51024 | 121.01406 | 99 ft | 3 kts | 225° |
| 2026-05-06 05:10 | 14.51043 | 121.01425 | 64 ft | 4 kts | 220° |
| 2026-05-06 05:10 | 14.51065 | 121.01442 | 61 ft | 4 kts | 210° |
| 2026-05-06 05:10 | 14.51089 | 121.01452 | 63 ft | 4 kts | 177° |
| 2026-05-06 05:11 | 14.51104 | 121.01447 | 61 ft | 1 kts | 134° |
| 2026-05-06 05:11 | 14.51106 | 121.01444 | 61 ft | 0 kts | 134° |
| 2026-05-06 05:13 | 14.51097 | 121.01455 | 65 ft | 6 kts | 134° |
| 2026-05-06 05:13 | 14.51064 | 121.01489 | 70 ft | 8 kts | 135° |
| 2026-05-06 05:13 | 14.51019 | 121.01534 | 71 ft | 10 kts | 136° |
| 2026-05-06 05:13 | 14.50971 | 121.01591 | 70 ft | 11 kts | 125° |
| 2026-05-06 05:14 | 14.50937 | 121.01631 | 65 ft | 3 kts | 117° |
| 2026-05-06 05:14 | 14.50933 | 121.01643 | 68 ft | 1 kts | 93° |
| 2026-05-06 05:14 | 14.50939 | 121.01655 | 69 ft | 5 kts | 58° |
| 2026-05-06 05:14 | 14.50965 | 121.01702 | 71 ft | 8 kts | 60° |
| 2026-05-06 05:15 | 14.50994 | 121.01756 | 66 ft | 8 kts | 59° |
| 2026-05-06 05:15 | 14.51037 | 121.01768 | 64 ft | 6 kts | 348° |
| 2026-05-06 05:15 | 14.51050 | 121.01760 | 72 ft | 0 kts | 321° |
| 2026-05-06 05:16 | 14.51062 | 121.01750 | 67 ft | 20 kts | 319° |
| 2026-05-06 05:16 | 14.51381 | 121.01417 | 68 ft | 107 kts | 315° |
| 2026-05-06 05:16 | 14.52087 | 121.00695 | 133 ft | 169 kts | 315° |
| 2026-05-06 05:16 | 14.52947 | 120.99832 | 834 ft | 176 kts | 314° |
| 2026-05-06 05:17 | 14.53811 | 120.98944 | 1726 ft | 175 kts | 314° |
| 2026-05-06 05:17 | 14.54730 | 120.97985 | 2432 ft | 203 kts | 316° |
| 2026-05-06 05:17 | 14.55823 | 120.96847 | 2831 ft | 245 kts | 315° |
| 2026-05-06 05:17 | 14.57105 | 120.95515 | 2949 ft | 271 kts | 316° |
| 2026-05-06 05:18 | 14.58450 | 120.94119 | 2960 ft | 276 kts | 316° |
| 2026-05-06 05:18 | 14.59846 | 120.92763 | 2984 ft | 275 kts | 324° |
| 2026-05-06 05:18 | 14.61510 | 120.91815 | 3000 ft | 272 kts | 343° |
| 2026-05-06 05:18 | 14.63373 | 120.91620 | 3341 ft | 277 kts | 10° |
| 2026-05-06 05:19 | 14.65131 | 120.92375 | 4340 ft | 273 kts | 39° |
| 2026-05-06 05:19 | 14.66308 | 120.93863 | 5523 ft | 267 kts | 66° |
| 2026-05-06 05:19 | 14.66676 | 120.95733 | 6583 ft | 269 kts | 93° |
| 2026-05-06 05:19 | 14.66139 | 120.97585 | 7535 ft | 274 kts | 118° |
| 2026-05-06 05:20 | 14.65051 | 120.99219 | 8528 ft | 279 kts | 129° |
| 2026-05-06 05:20 | 14.63724 | 121.00700 | 9526 ft | 283 kts | 134° |
| 2026-05-06 05:20 | 14.62277 | 121.02122 | 10363 ft | 293 kts | 136° |
| 2026-05-06 05:20 | 14.60724 | 121.03606 | 10802 ft | 314 kts | 136° |
| 2026-05-06 05:21 | 14.59098 | 121.05187 | 11421 ft | 326 kts | 135° |
| 2026-05-06 05:21 | 14.57470 | 121.06816 | 12180 ft | 333 kts | 134° |
| 2026-05-06 05:21 | 14.55812 | 121.08517 | 13002 ft | 338 kts | 133° |
| 2026-05-06 05:21 | 14.54145 | 121.10259 | 13785 ft | 344 kts | 133° |
| 2026-05-06 05:22 | 14.52462 | 121.12037 | 14514 ft | 348 kts | 133° |
| 2026-05-06 05:22 | 14.50763 | 121.13837 | 15310 ft | 351 kts | 133° |
| 2026-05-06 05:22 | 14.49047 | 121.15656 | 16116 ft | 355 kts | 133° |
| 2026-05-06 05:22 | 14.47317 | 121.17488 | 16922 ft | 358 kts | 133° |
| 2026-05-06 05:23 | 14.45573 | 121.19332 | 17736 ft | 360 kts | 134° |
| 2026-05-06 05:23 | 14.43807 | 121.21197 | 18157 ft | 368 kts | 134° |
| 2026-05-06 05:23 | 14.40131 | 121.25076 | 18666 ft | 385 kts | 134° |
| 2026-05-06 05:24 | 14.38249 | 121.27060 | 19076 ft | 387 kts | 134° |
| 2026-05-06 05:24 | 14.36359 | 121.29050 | 19507 ft | 389 kts | 134° |
| 2026-05-06 05:24 | 14.34461 | 121.31051 | 19904 ft | 392 kts | 134° |
| 2026-05-06 05:24 | 14.32573 | 121.33040 | 20256 ft | 395 kts | 134° |
| 2026-05-06 05:25 | 14.30641 | 121.35074 | 20610 ft | 399 kts | 134° |
| 2026-05-06 05:25 | 14.28692 | 121.37126 | 21033 ft | 401 kts | 134° |
| 2026-05-06 05:25 | 14.26736 | 121.39186 | 21448 ft | 403 kts | 134° |
| 2026-05-06 05:25 | 14.24768 | 121.41256 | 21894 ft | 405 kts | 134° |
| 2026-05-06 05:26 | 14.22783 | 121.43344 | 22277 ft | 409 kts | 134° |
| 2026-05-06 05:26 | 14.20781 | 121.45451 | 22679 ft | 412 kts | 134° |
| 2026-05-06 05:26 | 14.18768 | 121.47567 | 23091 ft | 415 kts | 135° |
| 2026-05-06 05:26 | 14.16741 | 121.49698 | 23491 ft | 418 kts | 135° |
| 2026-05-06 05:27 | 14.14694 | 121.51850 | 23849 ft | 420 kts | 134° |
| 2026-05-06 05:27 | 14.12640 | 121.54008 | 24198 ft | 423 kts | 135° |
| 2026-05-06 05:27 | 14.10595 | 121.56156 | 24554 ft | 426 kts | 135° |
| 2026-05-06 05:27 | 14.08513 | 121.58342 | 24921 ft | 429 kts | 135° |
| 2026-05-06 05:28 | 14.06418 | 121.60542 | 25290 ft | 431 kts | 135° |
| 2026-05-06 05:28 | 14.04314 | 121.62750 | 25653 ft | 433 kts | 135° |
| 2026-05-06 05:28 | 14.02198 | 121.64970 | 26010 ft | 436 kts | 135° |
| 2026-05-06 05:28 | 14.00068 | 121.67203 | 26374 ft | 438 kts | 135° |
| 2026-05-06 05:29 | 13.97929 | 121.69447 | 26732 ft | 440 kts | 135° |
| 2026-05-06 05:29 | 13.95778 | 121.71702 | 27056 ft | 442 kts | 135° |
| 2026-05-06 05:29 | 13.93617 | 121.73968 | 27393 ft | 445 kts | 135° |
| 2026-05-06 05:29 | 13.91441 | 121.76249 | 27718 ft | 447 kts | 135° |
| 2026-05-06 05:30 | 13.89256 | 121.78538 | 28051 ft | 449 kts | 135° |
| 2026-05-06 05:30 | 13.86999 | 121.80792 | 28361 ft | 451 kts | 140° |
| 2026-05-06 05:30 | 13.84550 | 121.82822 | 28676 ft | 453 kts | 143° |
| 2026-05-06 05:30 | 13.82039 | 121.84797 | 28976 ft | 455 kts | 144° |
| 2026-05-06 05:31 | 13.79491 | 121.86745 | 29273 ft | 458 kts | 144° |
| 2026-05-06 05:31 | 13.76941 | 121.88665 | 29567 ft | 460 kts | 144° |
| 2026-05-06 05:31 | 13.74348 | 121.90606 | 29863 ft | 462 kts | 144° |
| 2026-05-06 05:31 | 13.71741 | 121.92557 | 30122 ft | 464 kts | 144° |
| 2026-05-06 05:32 | 13.69125 | 121.94519 | 30390 ft | 465 kts | 144° |
| 2026-05-06 05:32 | 13.66510 | 121.96484 | 30744 ft | 464 kts | 144° |
| 2026-05-06 05:32 | 13.63903 | 121.98445 | 31095 ft | 464 kts | 144° |
| 2026-05-06 05:32 | 13.61305 | 122.00403 | 31426 ft | 463 kts | 144° |
| 2026-05-06 05:33 | 13.58707 | 122.02360 | 31781 ft | 462 kts | 144° |
| 2026-05-06 05:33 | 13.56113 | 122.04313 | 32128 ft | 461 kts | 144° |
| 2026-05-06 05:33 | 13.53527 | 122.06261 | 32476 ft | 460 kts | 145° |
| 2026-05-06 05:33 | 13.50948 | 122.08202 | 32793 ft | 460 kts | 144° |
| 2026-05-06 05:34 | 13.48368 | 122.10143 | 33147 ft | 458 kts | 144° |
| 2026-05-06 05:34 | 13.45797 | 122.12077 | 33494 ft | 457 kts | 144° |
| 2026-05-06 05:34 | 13.43232 | 122.14006 | 33816 ft | 457 kts | 144° |
| 2026-05-06 05:34 | 13.40703 | 122.15908 | 34082 ft | 456 kts | 144° |
| 2026-05-06 05:35 | 13.38139 | 122.17835 | 34350 ft | 455 kts | 144° |
| 2026-05-06 05:35 | 13.35581 | 122.19757 | 34616 ft | 454 kts | 144° |
| 2026-05-06 05:35 | 13.33025 | 122.21678 | 34876 ft | 454 kts | 145° |
| 2026-05-06 05:35 | 13.30474 | 122.23593 | 35129 ft | 453 kts | 145° |
| 2026-05-06 05:36 | 13.27933 | 122.25501 | 35378 ft | 452 kts | 145° |
| 2026-05-06 05:36 | 13.25426 | 122.27384 | 35621 ft | 451 kts | 145° |
| 2026-05-06 05:36 | 13.22890 | 122.29286 | 35853 ft | 451 kts | 145° |
| 2026-05-06 05:36 | 13.20360 | 122.31184 | 36078 ft | 450 kts | 145° |
| 2026-05-06 05:37 | 13.17831 | 122.33081 | 36293 ft | 450 kts | 145° |
| 2026-05-06 05:37 | 13.15305 | 122.34975 | 36499 ft | 449 kts | 146° |
| 2026-05-06 05:37 | 13.12785 | 122.36865 | 36741 ft | 448 kts | 146° |
| 2026-05-06 05:37 | 13.10264 | 122.38754 | 36858 ft | 449 kts | 146° |
| 2026-05-06 05:38 | 13.05231 | 122.42524 | 36867 ft | 447 kts | 146° |
| 2026-05-06 05:38 | 13.00201 | 122.46290 | 36867 ft | 447 kts | 146° |
| 2026-05-06 05:39 | 12.95201 | 122.50032 | 36864 ft | 447 kts | 146° |
| 2026-05-06 05:39 | 12.90174 | 122.53792 | 36864 ft | 447 kts | 146° |
| 2026-05-06 05:40 | 12.85140 | 122.57556 | 36864 ft | 447 kts | 146° |
| 2026-05-06 05:40 | 12.80961 | 122.60678 | 36864 ft | 447 kts | 146° |
| 2026-05-06 05:41 | 12.75085 | 122.65067 | 36864 ft | 447 kts | 146° |
| 2026-05-06 05:41 | 12.70907 | 122.68187 | 36865 ft | 447 kts | 146° |
| 2026-05-06 05:42 | 12.65874 | 122.71942 | 36862 ft | 447 kts | 146° |
| 2026-05-06 05:42 | 12.60842 | 122.75695 | 36862 ft | 447 kts | 146° |
| 2026-05-06 05:43 | 12.55822 | 122.79437 | 36862 ft | 446 kts | 146° |
| 2026-05-06 05:43 | 12.50798 | 122.83180 | 36862 ft | 446 kts | 146° |
| 2026-05-06 05:44 | 12.45773 | 122.86923 | 36861 ft | 446 kts | 146° |
| 2026-05-06 05:44 | 12.40749 | 122.90662 | 36862 ft | 447 kts | 146° |
| 2026-05-06 05:45 | 12.35750 | 122.94382 | 36856 ft | 447 kts | 146° |
| 2026-05-06 05:45 | 12.30723 | 122.98119 | 36856 ft | 447 kts | 146° |
| 2026-05-06 05:46 | 12.25694 | 123.01856 | 36856 ft | 447 kts | 146° |
| 2026-05-06 05:46 | 12.20662 | 123.05595 | 36853 ft | 447 kts | 146° |
| 2026-05-06 05:47 | 12.15635 | 123.09328 | 36853 ft | 447 kts | 146° |
| 2026-05-06 05:47 | 12.10598 | 123.13066 | 36853 ft | 446 kts | 146° |
| 2026-05-06 05:48 | 12.05601 | 123.16773 | 36848 ft | 446 kts | 146° |
| 2026-05-06 05:48 | 12.00575 | 123.20500 | 36850 ft | 446 kts | 146° |
| 2026-05-06 05:49 | 11.95553 | 123.24222 | 36848 ft | 446 kts | 145° |
| 2026-05-06 05:49 | 11.90529 | 123.27944 | 36848 ft | 446 kts | 145° |
| 2026-05-06 05:50 | 11.85509 | 123.31661 | 36847 ft | 446 kts | 145° |
| 2026-05-06 05:50 | 11.80485 | 123.35379 | 36848 ft | 446 kts | 145° |
| 2026-05-06 05:51 | 11.75466 | 123.39092 | 36775 ft | 446 kts | 145° |
| 2026-05-06 05:51 | 11.72990 | 123.40924 | 36299 ft | 446 kts | 145° |
| 2026-05-06 05:51 | 11.70467 | 123.42789 | 35562 ft | 450 kts | 145° |
| 2026-05-06 05:52 | 11.67915 | 123.44675 | 34832 ft | 455 kts | 145° |
| 2026-05-06 05:52 | 11.65341 | 123.46576 | 34139 ft | 459 kts | 145° |
| 2026-05-06 05:52 | 11.62742 | 123.48496 | 33348 ft | 463 kts | 145° |
| 2026-05-06 05:52 | 11.60121 | 123.50432 | 32639 ft | 465 kts | 145° |
| 2026-05-06 05:53 | 11.57502 | 123.52367 | 32144 ft | 462 kts | 145° |
| 2026-05-06 05:53 | 11.54908 | 123.54282 | 31619 ft | 460 kts | 145° |
| 2026-05-06 05:53 | 11.52323 | 123.56190 | 31081 ft | 458 kts | 145° |
| 2026-05-06 05:53 | 11.49741 | 123.58097 | 30539 ft | 456 kts | 144° |
| 2026-05-06 05:54 | 11.47193 | 123.59976 | 30000 ft | 448 kts | 144° |
| 2026-05-06 05:54 | 11.44690 | 123.61823 | 29397 ft | 440 kts | 144° |
| 2026-05-06 05:54 | 11.42236 | 123.63633 | 28857 ft | 431 kts | 144° |
| 2026-05-06 05:54 | 11.39831 | 123.65406 | 28336 ft | 422 kts | 144° |
| 2026-05-06 05:55 | 11.37504 | 123.67122 | 27834 ft | 413 kts | 144° |
| 2026-05-06 05:55 | 11.35187 | 123.68829 | 27323 ft | 411 kts | 143° |
| 2026-05-06 05:55 | 11.32875 | 123.70532 | 26817 ft | 409 kts | 143° |
| 2026-05-06 05:55 | 11.30564 | 123.72235 | 26297 ft | 409 kts | 143° |
| 2026-05-06 05:56 | 11.28259 | 123.73933 | 25790 ft | 408 kts | 143° |
| 2026-05-06 05:56 | 11.25955 | 123.75629 | 25282 ft | 408 kts | 143° |
| 2026-05-06 05:56 | 11.23652 | 123.77325 | 24757 ft | 408 kts | 143° |
| 2026-05-06 05:56 | 11.21354 | 123.79016 | 24239 ft | 403 kts | 143° |
| 2026-05-06 05:57 | 11.19103 | 123.80673 | 23737 ft | 395 kts | 143° |
| 2026-05-06 05:57 | 11.16876 | 123.82273 | 23190 ft | 388 kts | 147° |
| 2026-05-06 05:57 | 11.14458 | 123.83427 | 22589 ft | 383 kts | 163° |
| 2026-05-06 05:57 | 11.11836 | 123.83741 | 22066 ft | 378 kts | 182° |
| 2026-05-06 05:58 | 11.09293 | 123.83297 | 21598 ft | 372 kts | 192° |
| 2026-05-06 05:58 | 11.06782 | 123.82614 | 21099 ft | 366 kts | 194° |
| 2026-05-06 05:58 | 11.04377 | 123.81923 | 20630 ft | 360 kts | 194° |
| 2026-05-06 05:58 | 11.01990 | 123.81239 | 20169 ft | 354 kts | 194° |
| 2026-05-06 05:59 | 10.99633 | 123.80569 | 19710 ft | 350 kts | 194° |
| 2026-05-06 05:59 | 10.97285 | 123.79908 | 19249 ft | 349 kts | 194° |
| 2026-05-06 05:59 | 10.94944 | 123.79251 | 18785 ft | 348 kts | 194° |
| 2026-05-06 05:59 | 10.92612 | 123.78598 | 18337 ft | 348 kts | 194° |
| 2026-05-06 06:00 | 10.90266 | 123.77942 | 17831 ft | 350 kts | 194° |
| 2026-05-06 06:00 | 10.87914 | 123.77286 | 17349 ft | 351 kts | 194° |
| 2026-05-06 06:00 | 10.85558 | 123.76628 | 16881 ft | 351 kts | 193° |
| 2026-05-06 06:00 | 10.83196 | 123.75969 | 16413 ft | 352 kts | 194° |
| 2026-05-06 06:01 | 10.80833 | 123.75310 | 15942 ft | 352 kts | 194° |
| 2026-05-06 06:01 | 10.78466 | 123.74650 | 15454 ft | 351 kts | 193° |
| 2026-05-06 06:01 | 10.76109 | 123.73992 | 14970 ft | 351 kts | 194° |
| 2026-05-06 06:01 | 10.73790 | 123.73345 | 14513 ft | 349 kts | 194° |
| 2026-05-06 06:02 | 10.71450 | 123.72693 | 14049 ft | 347 kts | 194° |
| 2026-05-06 06:02 | 10.69150 | 123.72052 | 13584 ft | 338 kts | 194° |
| 2026-05-06 06:02 | 10.66903 | 123.71425 | 13096 ft | 331 kts | 193° |
| 2026-05-06 06:02 | 10.64701 | 123.70812 | 12692 ft | 323 kts | 194° |
| 2026-05-06 06:03 | 10.62566 | 123.70218 | 12365 ft | 315 kts | 194° |
| 2026-05-06 06:03 | 10.60455 | 123.69629 | 11954 ft | 315 kts | 194° |
| 2026-05-06 06:03 | 10.58337 | 123.69039 | 11509 ft | 315 kts | 193° |
| 2026-05-06 06:03 | 10.56220 | 123.68451 | 11099 ft | 315 kts | 194° |
| 2026-05-06 06:04 | 10.54097 | 123.67859 | 10666 ft | 317 kts | 193° |
| 2026-05-06 06:04 | 10.51957 | 123.67264 | 10230 ft | 319 kts | 193° |
| 2026-05-06 06:04 | 10.49856 | 123.66678 | 10019 ft | 312 kts | 193° |
| 2026-05-06 06:04 | 10.47808 | 123.66107 | 9874 ft | 301 kts | 192° |
| 2026-05-06 06:05 | 10.45780 | 123.65543 | 9428 ft | 303 kts | 193° |
| 2026-05-06 06:05 | 10.43755 | 123.64980 | 9015 ft | 299 kts | 193° |
| 2026-05-06 06:05 | 10.41774 | 123.64429 | 8640 ft | 292 kts | 193° |
| 2026-05-06 06:05 | 10.39842 | 123.63890 | 8279 ft | 285 kts | 192° |
| 2026-05-06 06:06 | 10.37946 | 123.63362 | 7922 ft | 280 kts | 192° |
| 2026-05-06 06:06 | 10.36057 | 123.62996 | 7566 ft | 273 kts | 180° |
| 2026-05-06 06:06 | 10.34221 | 123.63284 | 7200 ft | 265 kts | 155° |
| 2026-05-06 06:06 | 10.32664 | 123.64229 | 6873 ft | 259 kts | 140° |
| 2026-05-06 06:07 | 10.31295 | 123.65408 | 6530 ft | 258 kts | 134° |
| 2026-05-06 06:07 | 10.30022 | 123.66697 | 6196 ft | 258 kts | 132° |
| 2026-05-06 06:07 | 10.28809 | 123.68005 | 5868 ft | 257 kts | 130° |
| 2026-05-06 06:07 | 10.27588 | 123.69337 | 5537 ft | 259 kts | 131° |
| 2026-05-06 06:08 | 10.26358 | 123.70659 | 5304 ft | 253 kts | 131° |
| 2026-05-06 06:08 | 10.25154 | 123.71928 | 4902 ft | 248 kts | 131° |
| 2026-05-06 06:08 | 10.23937 | 123.73193 | 4557 ft | 250 kts | 132° |
| 2026-05-06 06:08 | 10.22708 | 123.74450 | 4254 ft | 251 kts | 133° |
| 2026-05-06 06:09 | 10.21469 | 123.75706 | 3930 ft | 252 kts | 133° |
| 2026-05-06 06:09 | 10.20235 | 123.76957 | 3601 ft | 249 kts | 133° |
| 2026-05-06 06:09 | 10.19008 | 123.78201 | 3288 ft | 249 kts | 133° |
| 2026-05-06 06:09 | 10.17810 | 123.79464 | 3040 ft | 247 kts | 127° |
| 2026-05-06 06:10 | 10.16984 | 123.80916 | 2987 ft | 223 kts | 105° |
| 2026-05-06 06:10 | 10.16807 | 123.82375 | 2991 ft | 202 kts | 83° |
| 2026-05-06 06:10 | 10.17161 | 123.83718 | 2991 ft | 190 kts | 62° |
| 2026-05-06 06:10 | 10.17859 | 123.84729 | 2976 ft | 162 kts | 47° |
| 2026-05-06 06:11 | 10.18614 | 123.85522 | 2804 ft | 152 kts | 43° |
| 2026-05-06 06:11 | 10.19353 | 123.86255 | 2555 ft | 150 kts | 43° |
| 2026-05-06 06:11 | 10.20102 | 123.86995 | 2497 ft | 151 kts | 44° |
| 2026-05-06 06:11 | 10.20856 | 123.87744 | 2496 ft | 152 kts | 43° |
| 2026-05-06 06:12 | 10.21610 | 123.88495 | 2437 ft | 151 kts | 44° |
| 2026-05-06 06:12 | 10.22356 | 123.89241 | 2257 ft | 149 kts | 43° |
| 2026-05-06 06:12 | 10.23099 | 123.89984 | 2032 ft | 149 kts | 45° |
| 2026-05-06 06:12 | 10.23837 | 123.90724 | 1891 ft | 145 kts | 44° |
| 2026-05-06 06:13 | 10.24528 | 123.91416 | 1689 ft | 135 kts | 46° |
| 2026-05-06 06:13 | 10.25191 | 123.92081 | 1468 ft | 132 kts | 44° |
| 2026-05-06 06:13 | 10.25844 | 123.92737 | 1288 ft | 132 kts | 44° |
| 2026-05-06 06:13 | 10.26496 | 123.93391 | 1134 ft | 131 kts | 45° |
| 2026-05-06 06:14 | 10.27146 | 123.94043 | 988 ft | 132 kts | 46° |
| 2026-05-06 06:14 | 10.27792 | 123.94693 | 792 ft | 130 kts | 46° |
| 2026-05-06 06:14 | 10.28435 | 123.95339 | 580 ft | 129 kts | 45° |
| 2026-05-06 06:14 | 10.29056 | 123.95961 | 411 ft | 124 kts | 43° |
| 2026-05-06 06:15 | 10.29657 | 123.96586 | 249 ft | 125 kts | 43° |
| 2026-05-06 06:15 | 10.30270 | 123.97201 | 81 ft | 123 kts | 41° |
| 2026-05-06 06:15 | 10.30833 | 123.97755 | 40 ft | 94 kts | 45° |
| 2026-05-06 06:15 | 10.31177 | 123.98101 | 40 ft | 55 kts | 45° |
| 2026-05-06 06:16 | 10.31413 | 123.98279 | 42 ft | 26 kts | 347° |
| 2026-05-06 06:16 | 10.31511 | 123.98203 | 41 ft | 13 kts | 316° |
| 2026-05-06 06:16 | 10.31567 | 123.98140 | 42 ft | 5 kts | 288° |
| 2026-05-06 06:16 | 10.31565 | 123.98115 | 42 ft | 0 kts | 256° |
| 2026-05-06 06:18 | 10.31564 | 123.98113 | 42 ft | 0 kts | 255° |